sensor_id;sensor_type;location;lat;lon;timestamp;P1;durP1;ratioP1;P2;durP2;ratioP2
22628;SDS011;11481;53.694;9.910;2022-07-03T00:02:20;3.38;;;1.83;;
22628;SDS011;11481;53.694;9.910;2022-07-03T00:04:46;2.55;;;1.73;;
22628;SDS011;11481;53.694;9.910;2022-07-03T00:07:13;2.13;;;1.52;;
22628;SDS011;11481;53.694;9.910;2022-07-03T00:09:40;2.35;;;1.48;;
22628;SDS011;11481;53.694;9.910;2022-07-03T00:12:06;4.05;;;1.67;;
22628;SDS011;11481;53.694;9.910;2022-07-03T00:14:33;2.65;;;1.40;;
22628;SDS011;11481;53.694;9.910;2022-07-03T00:17:00;2.10;;;1.70;;
22628;SDS011;11481;53.694;9.910;2022-07-03T00:19:27;3.90;;;1.30;;
22628;SDS011;11481;53.694;9.910;2022-07-03T00:21:58;4.68;;;1.90;;
22628;SDS011;11481;53.694;9.910;2022-07-03T00:24:37;3.13;;;1.73;;
22628;SDS011;11481;53.694;9.910;2022-07-03T00:27:09;2.72;;;1.65;;
22628;SDS011;11481;53.694;9.910;2022-07-03T00:29:37;3.65;;;1.55;;
22628;SDS011;11481;53.694;9.910;2022-07-03T00:32:06;3.00;;;1.92;;
22628;SDS011;11481;53.694;9.910;2022-07-03T00:34:35;2.80;;;1.65;;
22628;SDS011;11481;53.694;9.910;2022-07-03T00:37:06;2.35;;;1.50;;
22628;SDS011;11481;53.694;9.910;2022-07-03T00:39:37;3.22;;;1.85;;
22628;SDS011;11481;53.694;9.910;2022-07-03T00:42:07;2.63;;;1.67;;
22628;SDS011;11481;53.694;9.910;2022-07-03T00:44:42;1.85;;;1.45;;
22628;SDS011;11481;53.694;9.910;2022-07-03T00:47:17;2.33;;;1.38;;
22628;SDS011;11481;53.694;9.910;2022-07-03T00:49:47;3.38;;;1.90;;
22628;SDS011;11481;53.694;9.910;2022-07-03T00:52:16;2.83;;;1.75;;
22628;SDS011;11481;53.694;9.910;2022-07-03T00:54:47;2.08;;;1.50;;
22628;SDS011;11481;53.694;9.910;2022-07-03T00:57:19;4.72;;;1.90;;
22628;SDS011;11481;53.694;9.910;2022-07-03T00:59:47;2.20;;;1.40;;
22628;SDS011;11481;53.694;9.910;2022-07-03T01:02:15;2.22;;;1.40;;
22628;SDS011;11481;53.694;9.910;2022-07-03T01:07:56;3.22;;;1.63;;
22628;SDS011;11481;53.694;9.910;2022-07-03T01:10:35;2.13;;;1.58;;
22628;SDS011;11481;53.694;9.910;2022-07-03T01:16:06;2.50;;;1.60;;
22628;SDS011;11481;53.694;9.910;2022-07-03T01:26:54;3.38;;;1.83;;
22628;SDS011;11481;53.694;9.910;2022-07-03T01:29:32;3.50;;;1.63;;
22628;SDS011;11481;53.694;9.910;2022-07-03T01:32:09;2.30;;;1.70;;
22628;SDS011;11481;53.694;9.910;2022-07-03T01:34:37;4.15;;;1.90;;
22628;SDS011;11481;53.694;9.910;2022-07-03T01:37:11;2.67;;;1.70;;
22628;SDS011;11481;53.694;9.910;2022-07-03T01:39:41;2.70;;;1.70;;
22628;SDS011;11481;53.694;9.910;2022-07-03T01:42:21;2.30;;;1.70;;
22628;SDS011;11481;53.694;9.910;2022-07-03T01:44:51;5.03;;;1.88;;
22628;SDS011;11481;53.694;9.910;2022-07-03T01:47:20;2.42;;;1.90;;
22628;SDS011;11481;53.694;9.910;2022-07-03T01:49:54;4.80;;;1.90;;
22628;SDS011;11481;53.694;9.910;2022-07-03T01:52:22;3.42;;;1.67;;
22628;SDS011;11481;53.694;9.910;2022-07-03T01:55:11;2.53;;;1.70;;
22628;SDS011;11481;53.694;9.910;2022-07-03T01:57:43;2.67;;;1.70;;
22628;SDS011;11481;53.694;9.910;2022-07-03T02:00:12;2.97;;;1.85;;
22628;SDS011;11481;53.694;9.910;2022-07-03T02:02:45;1.92;;;1.45;;
22628;SDS011;11481;53.694;9.910;2022-07-03T02:10:39;3.33;;;1.90;;
22628;SDS011;11481;53.694;9.910;2022-07-03T02:13:17;2.28;;;1.58;;
22628;SDS011;11481;53.694;9.910;2022-07-03T02:15:49;3.35;;;1.95;;
22628;SDS011;11481;53.694;9.910;2022-07-03T02:21:11;2.20;;;1.55;;
22628;SDS011;11481;53.694;9.910;2022-07-03T02:23:55;3.10;;;1.75;;
22628;SDS011;11481;53.694;9.910;2022-07-03T02:26:27;3.30;;;2.40;;
22628;SDS011;11481;53.694;9.910;2022-07-03T02:29:01;3.72;;;1.92;;
22628;SDS011;11481;53.694;9.910;2022-07-03T02:31:40;1.98;;;1.50;;
22628;SDS011;11481;53.694;9.910;2022-07-03T02:34:18;2.17;;;1.50;;
22628;SDS011;11481;53.694;9.910;2022-07-03T02:36:50;2.80;;;1.80;;
22628;SDS011;11481;53.694;9.910;2022-07-03T02:39:26;4.45;;;1.48;;
22628;SDS011;11481;53.694;9.910;2022-07-03T02:42:14;2.38;;;1.70;;
22628;SDS011;11481;53.694;9.910;2022-07-03T02:44:55;2.33;;;1.70;;
22628;SDS011;11481;53.694;9.910;2022-07-03T02:47:28;1.88;;;1.48;;
22628;SDS011;11481;53.694;9.910;2022-07-03T02:52:32;2.00;;;1.35;;
22628;SDS011;11481;53.694;9.910;2022-07-03T03:06:42;2.80;;;1.40;;
22628;SDS011;11481;53.694;9.910;2022-07-03T03:09:22;4.53;;;1.85;;
22628;SDS011;11481;53.694;9.910;2022-07-03T03:11:54;3.08;;;2.10;;
22628;SDS011;11481;53.694;9.910;2022-07-03T03:14:22;2.42;;;1.63;;
22628;SDS011;11481;53.694;9.910;2022-07-03T03:16:57;2.42;;;1.60;;
22628;SDS011;11481;53.694;9.910;2022-07-03T03:19:27;2.40;;;1.63;;
22628;SDS011;11481;53.694;9.910;2022-07-03T03:24:25;2.47;;;1.70;;
22628;SDS011;11481;53.694;9.910;2022-07-03T03:26:52;2.90;;;1.65;;
22628;SDS011;11481;53.694;9.910;2022-07-03T03:29:20;3.13;;;1.90;;
22628;SDS011;11481;53.694;9.910;2022-07-03T03:31:46;2.40;;;1.85;;
22628;SDS011;11481;53.694;9.910;2022-07-03T03:34:13;3.15;;;2.05;;
22628;SDS011;11481;53.694;9.910;2022-07-03T03:36:41;2.95;;;1.63;;
22628;SDS011;11481;53.694;9.910;2022-07-03T03:39:08;2.25;;;1.40;;
22628;SDS011;11481;53.694;9.910;2022-07-03T03:41:34;3.40;;;1.75;;
22628;SDS011;11481;53.694;9.910;2022-07-03T03:44:01;2.63;;;1.50;;
22628;SDS011;11481;53.694;9.910;2022-07-03T03:46:28;2.25;;;1.65;;
22628;SDS011;11481;53.694;9.910;2022-07-03T03:48:55;3.58;;;1.98;;
22628;SDS011;11481;53.694;9.910;2022-07-03T03:51:23;3.78;;;1.73;;
22628;SDS011;11481;53.694;9.910;2022-07-03T03:53:49;2.50;;;1.77;;
22628;SDS011;11481;53.694;9.910;2022-07-03T03:56:18;2.38;;;1.50;;
22628;SDS011;11481;53.694;9.910;2022-07-03T03:58:44;2.33;;;1.40;;
22628;SDS011;11481;53.694;9.910;2022-07-03T04:01:11;3.95;;;1.45;;
22628;SDS011;11481;53.694;9.910;2022-07-03T04:03:39;3.92;;;1.92;;
22628;SDS011;11481;53.694;9.910;2022-07-03T04:06:07;2.85;;;1.90;;
22628;SDS011;11481;53.694;9.910;2022-07-03T04:08:34;2.67;;;1.55;;
22628;SDS011;11481;53.694;9.910;2022-07-03T04:11:00;2.15;;;1.35;;
22628;SDS011;11481;53.694;9.910;2022-07-03T04:13:27;5.88;;;2.00;;
22628;SDS011;11481;53.694;9.910;2022-07-03T04:15:54;2.67;;;1.48;;
22628;SDS011;11481;53.694;9.910;2022-07-03T04:18:21;3.00;;;2.08;;
22628;SDS011;11481;53.694;9.910;2022-07-03T04:20:49;3.33;;;1.98;;
22628;SDS011;11481;53.694;9.910;2022-07-03T04:23:15;3.20;;;1.73;;
22628;SDS011;11481;53.694;9.910;2022-07-03T04:25:43;2.33;;;1.35;;
22628;SDS011;11481;53.694;9.910;2022-07-03T04:28:09;3.22;;;1.88;;
22628;SDS011;11481;53.694;9.910;2022-07-03T04:30:45;2.40;;;1.35;;
22628;SDS011;11481;53.694;9.910;2022-07-03T04:33:12;2.65;;;1.75;;
22628;SDS011;11481;53.694;9.910;2022-07-03T04:35:39;2.50;;;1.48;;
22628;SDS011;11481;53.694;9.910;2022-07-03T04:38:06;3.03;;;1.90;;
22628;SDS011;11481;53.694;9.910;2022-07-03T04:40:32;2.92;;;1.85;;
22628;SDS011;11481;53.694;9.910;2022-07-03T04:42:59;3.03;;;1.88;;
22628;SDS011;11481;53.694;9.910;2022-07-03T04:45:26;2.30;;;1.60;;
22628;SDS011;11481;53.694;9.910;2022-07-03T04:47:52;2.72;;;1.67;;
22628;SDS011;11481;53.694;9.910;2022-07-03T04:50:19;4.32;;;2.20;;
22628;SDS011;11481;53.694;9.910;2022-07-03T04:52:46;2.90;;;1.40;;
22628;SDS011;11481;53.694;9.910;2022-07-03T04:55:12;3.05;;;1.67;;
22628;SDS011;11481;53.694;9.910;2022-07-03T04:57:39;2.47;;;1.67;;
22628;SDS011;11481;53.694;9.910;2022-07-03T05:00:06;2.40;;;1.60;;
22628;SDS011;11481;53.694;9.910;2022-07-03T05:02:33;2.53;;;1.80;;
22628;SDS011;11481;53.694;9.910;2022-07-03T05:05:00;2.35;;;1.58;;
22628;SDS011;11481;53.694;9.910;2022-07-03T05:07:27;2.50;;;1.48;;
22628;SDS011;11481;53.694;9.910;2022-07-03T05:09:55;2.88;;;1.63;;
22628;SDS011;11481;53.694;9.910;2022-07-03T05:12:21;2.50;;;1.63;;
22628;SDS011;11481;53.694;9.910;2022-07-03T05:14:48;2.28;;;1.60;;
22628;SDS011;11481;53.694;9.910;2022-07-03T05:17:16;3.15;;;1.85;;
22628;SDS011;11481;53.694;9.910;2022-07-03T05:19:44;2.65;;;1.48;;
22628;SDS011;11481;53.694;9.910;2022-07-03T05:22:11;2.92;;;2.08;;
22628;SDS011;11481;53.694;9.910;2022-07-03T05:24:38;2.50;;;1.55;;
22628;SDS011;11481;53.694;9.910;2022-07-03T05:27:05;3.20;;;1.67;;
22628;SDS011;11481;53.694;9.910;2022-07-03T05:29:31;5.60;;;2.15;;
22628;SDS011;11481;53.694;9.910;2022-07-03T05:32:03;2.42;;;1.83;;
22628;SDS011;11481;53.694;9.910;2022-07-03T05:34:31;2.85;;;1.70;;
22628;SDS011;11481;53.694;9.910;2022-07-03T05:36:57;3.28;;;2.03;;
22628;SDS011;11481;53.694;9.910;2022-07-03T05:39:24;3.75;;;1.65;;
22628;SDS011;11481;53.694;9.910;2022-07-03T05:42:01;2.88;;;1.85;;
22628;SDS011;11481;53.694;9.910;2022-07-03T05:44:28;3.20;;;2.17;;
22628;SDS011;11481;53.694;9.910;2022-07-03T05:46:54;2.75;;;1.88;;
22628;SDS011;11481;53.694;9.910;2022-07-03T05:49:22;2.55;;;1.98;;
22628;SDS011;11481;53.694;9.910;2022-07-03T05:51:49;2.88;;;1.70;;
22628;SDS011;11481;53.694;9.910;2022-07-03T05:54:15;3.60;;;1.90;;
22628;SDS011;11481;53.694;9.910;2022-07-03T05:57:06;3.78;;;2.05;;
22628;SDS011;11481;53.694;9.910;2022-07-03T05:59:32;3.72;;;2.15;;
22628;SDS011;11481;53.694;9.910;2022-07-03T06:01:59;2.72;;;1.98;;
22628;SDS011;11481;53.694;9.910;2022-07-03T06:04:26;4.72;;;2.00;;
22628;SDS011;11481;53.694;9.910;2022-07-03T06:06:53;2.63;;;1.80;;
22628;SDS011;11481;53.694;9.910;2022-07-03T06:09:22;2.72;;;1.70;;
22628;SDS011;11481;53.694;9.910;2022-07-03T06:11:49;4.63;;;1.80;;
22628;SDS011;11481;53.694;9.910;2022-07-03T06:14:16;2.97;;;1.83;;
22628;SDS011;11481;53.694;9.910;2022-07-03T06:16:42;2.15;;;1.52;;
22628;SDS011;11481;53.694;9.910;2022-07-03T06:19:09;3.08;;;1.98;;
22628;SDS011;11481;53.694;9.910;2022-07-03T06:21:36;2.33;;;1.58;;
22628;SDS011;11481;53.694;9.910;2022-07-03T06:24:02;3.35;;;1.42;;
22628;SDS011;11481;53.694;9.910;2022-07-03T06:26:29;3.05;;;1.98;;
22628;SDS011;11481;53.694;9.910;2022-07-03T06:28:56;2.05;;;1.50;;
22628;SDS011;11481;53.694;9.910;2022-07-03T06:31:22;3.92;;;2.03;;
22628;SDS011;11481;53.694;9.910;2022-07-03T06:33:49;4.13;;;1.70;;
22628;SDS011;11481;53.694;9.910;2022-07-03T06:36:16;3.00;;;1.63;;
22628;SDS011;11481;53.694;9.910;2022-07-03T06:38:42;1.95;;;1.38;;
22628;SDS011;11481;53.694;9.910;2022-07-03T06:41:09;2.17;;;1.60;;
22628;SDS011;11481;53.694;9.910;2022-07-03T06:43:36;3.72;;;2.25;;
22628;SDS011;11481;53.694;9.910;2022-07-03T06:46:02;2.00;;;1.45;;
22628;SDS011;11481;53.694;9.910;2022-07-03T06:48:29;3.65;;;1.75;;
22628;SDS011;11481;53.694;9.910;2022-07-03T06:50:56;2.85;;;1.60;;
22628;SDS011;11481;53.694;9.910;2022-07-03T06:53:22;3.78;;;1.70;;
22628;SDS011;11481;53.694;9.910;2022-07-03T06:55:49;2.10;;;1.40;;
22628;SDS011;11481;53.694;9.910;2022-07-03T06:58:16;2.42;;;1.63;;
22628;SDS011;11481;53.694;9.910;2022-07-03T07:00:42;2.60;;;1.58;;
22628;SDS011;11481;53.694;9.910;2022-07-03T07:03:09;3.05;;;1.70;;
22628;SDS011;11481;53.694;9.910;2022-07-03T07:05:36;1.88;;;1.33;;
22628;SDS011;11481;53.694;9.910;2022-07-03T07:08:02;2.95;;;1.75;;
22628;SDS011;11481;53.694;9.910;2022-07-03T07:10:29;4.88;;;1.63;;
22628;SDS011;11481;53.694;9.910;2022-07-03T07:12:56;3.45;;;1.80;;
22628;SDS011;11481;53.694;9.910;2022-07-03T07:15:23;4.13;;;2.08;;
22628;SDS011;11481;53.694;9.910;2022-07-03T07:17:49;5.15;;;2.00;;
22628;SDS011;11481;53.694;9.910;2022-07-03T07:20:16;2.67;;;2.05;;
22628;SDS011;11481;53.694;9.910;2022-07-03T07:22:42;2.80;;;1.88;;
22628;SDS011;11481;53.694;9.910;2022-07-03T07:25:09;2.38;;;1.73;;
22628;SDS011;11481;53.694;9.910;2022-07-03T07:27:36;2.85;;;1.58;;
22628;SDS011;11481;53.694;9.910;2022-07-03T07:30:03;2.45;;;1.90;;
22628;SDS011;11481;53.694;9.910;2022-07-03T07:32:30;3.80;;;1.90;;
22628;SDS011;11481;53.694;9.910;2022-07-03T07:34:56;3.22;;;1.95;;
22628;SDS011;11481;53.694;9.910;2022-07-03T07:37:23;3.28;;;1.63;;
22628;SDS011;11481;53.694;9.910;2022-07-03T07:39:49;2.63;;;1.70;;
22628;SDS011;11481;53.694;9.910;2022-07-03T07:42:16;3.28;;;2.10;;
22628;SDS011;11481;53.694;9.910;2022-07-03T07:44:43;2.42;;;1.83;;
22628;SDS011;11481;53.694;9.910;2022-07-03T07:47:09;2.60;;;1.70;;
22628;SDS011;11481;53.694;9.910;2022-07-03T07:49:36;2.42;;;1.77;;
22628;SDS011;11481;53.694;9.910;2022-07-03T07:52:02;3.15;;;1.50;;
22628;SDS011;11481;53.694;9.910;2022-07-03T07:54:30;2.55;;;1.73;;
22628;SDS011;11481;53.694;9.910;2022-07-03T07:56:56;3.30;;;2.20;;
22628;SDS011;11481;53.694;9.910;2022-07-03T07:59:23;3.30;;;2.00;;
22628;SDS011;11481;53.694;9.910;2022-07-03T08:01:49;2.33;;;1.60;;
22628;SDS011;11481;53.694;9.910;2022-07-03T08:04:35;3.15;;;2.13;;
22628;SDS011;11481;53.694;9.910;2022-07-03T08:07:20;4.38;;;2.00;;
22628;SDS011;11481;53.694;9.910;2022-07-03T08:09:47;4.28;;;1.95;;
22628;SDS011;11481;53.694;9.910;2022-07-03T08:12:13;4.18;;;2.10;;
22628;SDS011;11481;53.694;9.910;2022-07-03T08:14:40;3.30;;;1.95;;
22628;SDS011;11481;53.694;9.910;2022-07-03T08:17:07;5.60;;;2.17;;
22628;SDS011;11481;53.694;9.910;2022-07-03T08:19:33;2.60;;;1.80;;
22628;SDS011;11481;53.694;9.910;2022-07-03T08:22:00;3.00;;;2.13;;
22628;SDS011;11481;53.694;9.910;2022-07-03T08:24:27;4.93;;;2.38;;
22628;SDS011;11481;53.694;9.910;2022-07-03T08:26:54;2.20;;;1.70;;
22628;SDS011;11481;53.694;9.910;2022-07-03T08:29:20;2.97;;;2.10;;
22628;SDS011;11481;53.694;9.910;2022-07-03T08:31:47;2.05;;;1.45;;
22628;SDS011;11481;53.694;9.910;2022-07-03T08:34:14;3.15;;;2.10;;
22628;SDS011;11481;53.694;9.910;2022-07-03T08:36:41;4.38;;;1.73;;
22628;SDS011;11481;53.694;9.910;2022-07-03T08:39:08;3.63;;;2.10;;
22628;SDS011;11481;53.694;9.910;2022-07-03T08:41:39;4.32;;;2.20;;
22628;SDS011;11481;53.694;9.910;2022-07-03T08:44:07;2.72;;;1.80;;
22628;SDS011;11481;53.694;9.910;2022-07-03T08:46:35;2.72;;;1.92;;
22628;SDS011;11481;53.694;9.910;2022-07-03T08:49:04;2.70;;;1.80;;
22628;SDS011;11481;53.694;9.910;2022-07-03T08:51:33;2.28;;;1.92;;
22628;SDS011;11481;53.694;9.910;2022-07-03T08:54:01;2.33;;;1.80;;
22628;SDS011;11481;53.694;9.910;2022-07-03T08:56:28;5.80;;;2.60;;
22628;SDS011;11481;53.694;9.910;2022-07-03T08:58:58;5.68;;;1.70;;
22628;SDS011;11481;53.694;9.910;2022-07-03T09:01:26;3.15;;;2.13;;
22628;SDS011;11481;53.694;9.910;2022-07-03T09:03:54;3.03;;;1.80;;
22628;SDS011;11481;53.694;9.910;2022-07-03T09:06:23;2.40;;;1.90;;
22628;SDS011;11481;53.694;9.910;2022-07-03T09:08:50;2.72;;;2.08;;
22628;SDS011;11481;53.694;9.910;2022-07-03T09:11:17;3.53;;;1.88;;
22628;SDS011;11481;53.694;9.910;2022-07-03T09:13:45;2.55;;;1.98;;
22628;SDS011;11481;53.694;9.910;2022-07-03T09:16:15;2.88;;;1.58;;
22628;SDS011;11481;53.694;9.910;2022-07-03T09:18:43;2.90;;;1.85;;
22628;SDS011;11481;53.694;9.910;2022-07-03T09:21:11;6.07;;;1.98;;
22628;SDS011;11481;53.694;9.910;2022-07-03T09:23:39;2.17;;;1.70;;
22628;SDS011;11481;53.694;9.910;2022-07-03T09:26:17;3.85;;;2.03;;
22628;SDS011;11481;53.694;9.910;2022-07-03T09:28:51;4.20;;;1.83;;
22628;SDS011;11481;53.694;9.910;2022-07-03T09:31:20;3.10;;;2.00;;
22628;SDS011;11481;53.694;9.910;2022-07-03T09:33:51;1.95;;;1.65;;
22628;SDS011;11481;53.694;9.910;2022-07-03T09:39:16;2.50;;;1.83;;
22628;SDS011;11481;53.694;9.910;2022-07-03T09:42:19;2.85;;;2.00;;
22628;SDS011;11481;53.694;9.910;2022-07-03T09:44:40;3.63;;;1.92;;
22628;SDS011;11481;53.694;9.910;2022-07-03T09:49:52;2.42;;;1.83;;
22628;SDS011;11481;53.694;9.910;2022-07-03T09:52:36;3.00;;;1.80;;
22628;SDS011;11481;53.694;9.910;2022-07-03T10:00:14;4.15;;;2.58;;
22628;SDS011;11481;53.694;9.910;2022-07-03T10:05:29;2.80;;;1.88;;
22628;SDS011;11481;53.694;9.910;2022-07-03T10:08:01;2.83;;;1.98;;
22628;SDS011;11481;53.694;9.910;2022-07-03T10:10:31;2.85;;;1.70;;
22628;SDS011;11481;53.694;9.910;2022-07-03T10:12:58;4.60;;;1.92;;
22628;SDS011;11481;53.694;9.910;2022-07-03T10:15:27;4.75;;;1.50;;
22628;SDS011;11481;53.694;9.910;2022-07-03T10:17:55;2.38;;;1.92;;
22628;SDS011;11481;53.694;9.910;2022-07-03T10:20:57;2.65;;;1.50;;
22628;SDS011;11481;53.694;9.910;2022-07-03T10:23:17;3.28;;;1.65;;
22628;SDS011;11481;53.694;9.910;2022-07-03T10:25:46;2.45;;;1.23;;
22628;SDS011;11481;53.694;9.910;2022-07-03T10:28:15;2.47;;;1.20;;
22628;SDS011;11481;53.694;9.910;2022-07-03T10:30:44;2.63;;;1.70;;
22628;SDS011;11481;53.694;9.910;2022-07-03T10:33:17;1.75;;;1.45;;
22628;SDS011;11481;53.694;9.910;2022-07-03T10:35:47;4.47;;;2.03;;
22628;SDS011;11481;53.694;9.910;2022-07-03T10:38:18;2.35;;;1.60;;
22628;SDS011;11481;53.694;9.910;2022-07-03T10:44:08;2.05;;;1.30;;
22628;SDS011;11481;53.694;9.910;2022-07-03T10:46:53;2.08;;;1.20;;
22628;SDS011;11481;53.694;9.910;2022-07-03T10:49:27;2.50;;;1.58;;
22628;SDS011;11481;53.694;9.910;2022-07-03T10:51:55;1.85;;;1.40;;
22628;SDS011;11481;53.694;9.910;2022-07-03T11:15:25;1.67;;;1.40;;
22628;SDS011;11481;53.694;9.910;2022-07-03T11:25:42;5.13;;;1.83;;
22628;SDS011;11481;53.694;9.910;2022-07-03T11:41:26;2.97;;;2.05;;
22628;SDS011;11481;53.694;9.910;2022-07-03T11:43:58;6.50;;;1.98;;
22628;SDS011;11481;53.694;9.910;2022-07-03T11:46:29;3.72;;;1.90;;
22628;SDS011;11481;53.694;9.910;2022-07-03T11:49:07;1.80;;;1.25;;
22628;SDS011;11481;53.694;9.910;2022-07-03T11:51:39;1.85;;;1.38;;
22628;SDS011;11481;53.694;9.910;2022-07-03T11:54:06;4.00;;;1.75;;
22628;SDS011;11481;53.694;9.910;2022-07-03T11:56:34;1.65;;;1.20;;
22628;SDS011;11481;53.694;9.910;2022-07-03T11:59:03;1.75;;;1.10;;
22628;SDS011;11481;53.694;9.910;2022-07-03T12:01:34;1.23;;;0.90;;
22628;SDS011;11481;53.694;9.910;2022-07-03T12:04:06;1.42;;;0.80;;
22628;SDS011;11481;53.694;9.910;2022-07-03T12:09:14;1.35;;;0.90;;
22628;SDS011;11481;53.694;9.910;2022-07-03T12:14:45;2.85;;;0.90;;
22628;SDS011;11481;53.694;9.910;2022-07-03T12:17:18;4.53;;;0.63;;
22628;SDS011;11481;53.694;9.910;2022-07-03T12:20:09;1.10;;;0.90;;
22628;SDS011;11481;53.694;9.910;2022-07-03T12:22:36;0.75;;;0.70;;
22628;SDS011;11481;53.694;9.910;2022-07-03T12:25:08;1.45;;;1.00;;
22628;SDS011;11481;53.694;9.910;2022-07-03T12:30:08;1.90;;;1.00;;
22628;SDS011;11481;53.694;9.910;2022-07-03T12:32:39;2.00;;;0.98;;
22628;SDS011;11481;53.694;9.910;2022-07-03T12:35:07;1.08;;;0.90;;
22628;SDS011;11481;53.694;9.910;2022-07-03T12:37:37;1.65;;;1.05;;
22628;SDS011;11481;53.694;9.910;2022-07-03T12:40:07;1.63;;;0.80;;
22628;SDS011;11481;53.694;9.910;2022-07-03T12:42:46;1.17;;;0.68;;
22628;SDS011;11481;53.694;9.910;2022-07-03T12:45:26;2.05;;;0.82;;
22628;SDS011;11481;53.694;9.910;2022-07-03T12:47:58;1.52;;;0.77;;
22628;SDS011;11481;53.694;9.910;2022-07-03T12:50:43;1.13;;;0.70;;
22628;SDS011;11481;53.694;9.910;2022-07-03T12:53:27;1.30;;;0.90;;
22628;SDS011;11481;53.694;9.910;2022-07-03T12:55:54;1.23;;;0.80;;
22628;SDS011;11481;53.694;9.910;2022-07-03T12:58:29;1.05;;;0.80;;
22628;SDS011;11481;53.694;9.910;2022-07-03T13:01:28;1.77;;;0.80;;
22628;SDS011;11481;53.694;9.910;2022-07-03T13:04:03;1.00;;;0.75;;
22628;SDS011;11481;53.694;9.910;2022-07-03T13:06:31;0.98;;;0.80;;
22628;SDS011;11481;53.694;9.910;2022-07-03T13:08:58;3.00;;;0.93;;
22628;SDS011;11481;53.694;9.910;2022-07-03T13:11:34;2.00;;;0.85;;
22628;SDS011;11481;53.694;9.910;2022-07-03T13:14:03;2.65;;;0.85;;
22628;SDS011;11481;53.694;9.910;2022-07-03T13:16:37;1.42;;;0.60;;
22628;SDS011;11481;53.694;9.910;2022-07-03T13:19:07;1.02;;;0.77;;
22628;SDS011;11481;53.694;9.910;2022-07-03T13:21:36;1.95;;;1.00;;
22628;SDS011;11481;53.694;9.910;2022-07-03T13:24:04;0.88;;;0.65;;
22628;SDS011;11481;53.694;9.910;2022-07-03T13:26:32;1.70;;;0.80;;
22628;SDS011;11481;53.694;9.910;2022-07-03T13:29:00;1.88;;;0.80;;
22628;SDS011;11481;53.694;9.910;2022-07-03T13:31:27;1.00;;;0.80;;
22628;SDS011;11481;53.694;9.910;2022-07-03T13:33:54;1.08;;;0.90;;
22628;SDS011;11481;53.694;9.910;2022-07-03T13:36:25;0.80;;;0.70;;
22628;SDS011;11481;53.694;9.910;2022-07-03T13:38:53;1.48;;;0.77;;
22628;SDS011;11481;53.694;9.910;2022-07-03T13:41:19;1.15;;;0.73;;
22628;SDS011;11481;53.694;9.910;2022-07-03T13:43:49;1.00;;;0.80;;
22628;SDS011;11481;53.694;9.910;2022-07-03T13:46:17;1.23;;;0.75;;
22628;SDS011;11481;53.694;9.910;2022-07-03T13:48:45;1.63;;;0.60;;
22628;SDS011;11481;53.694;9.910;2022-07-03T13:51:11;1.15;;;0.68;;
22628;SDS011;11481;53.694;9.910;2022-07-03T13:53:38;1.42;;;1.02;;
22628;SDS011;11481;53.694;9.910;2022-07-03T13:56:05;0.70;;;0.57;;
22628;SDS011;11481;53.694;9.910;2022-07-03T13:58:32;1.58;;;0.73;;
22628;SDS011;11481;53.694;9.910;2022-07-03T14:00:59;1.13;;;0.75;;
22628;SDS011;11481;53.694;9.910;2022-07-03T14:03:27;0.75;;;0.70;;
22628;SDS011;11481;53.694;9.910;2022-07-03T14:05:54;1.33;;;0.57;;
22628;SDS011;11481;53.694;9.910;2022-07-03T14:08:22;0.73;;;0.50;;
22628;SDS011;11481;53.694;9.910;2022-07-03T14:10:49;2.30;;;0.85;;
22628;SDS011;11481;53.694;9.910;2022-07-03T14:13:16;6.65;;;0.80;;
22628;SDS011;11481;53.694;9.910;2022-07-03T14:15:43;0.95;;;0.80;;
22628;SDS011;11481;53.694;9.910;2022-07-03T14:18:10;0.55;;;0.50;;
22628;SDS011;11481;53.694;9.910;2022-07-03T14:20:36;5.25;;;1.30;;
22628;SDS011;11481;53.694;9.910;2022-07-03T14:23:03;1.02;;;0.68;;
22628;SDS011;11481;53.694;9.910;2022-07-03T14:25:30;0.90;;;0.70;;
22628;SDS011;11481;53.694;9.910;2022-07-03T14:27:56;1.73;;;0.90;;
22628;SDS011;11481;53.694;9.910;2022-07-03T14:30:42;2.10;;;0.88;;
22628;SDS011;11481;53.694;9.910;2022-07-03T14:33:27;1.88;;;0.88;;
22628;SDS011;11481;53.694;9.910;2022-07-03T14:35:54;3.15;;;0.77;;
22628;SDS011;11481;53.694;9.910;2022-07-03T14:38:28;3.22;;;0.85;;
22628;SDS011;11481;53.694;9.910;2022-07-03T14:40:56;2.45;;;0.98;;
22628;SDS011;11481;53.694;9.910;2022-07-03T14:43:22;0.80;;;0.63;;
22628;SDS011;11481;53.694;9.910;2022-07-03T14:45:49;1.35;;;0.70;;
22628;SDS011;11481;53.694;9.910;2022-07-03T14:48:15;3.53;;;1.38;;
22628;SDS011;11481;53.694;9.910;2022-07-03T14:50:42;1.10;;;0.70;;
22628;SDS011;11481;53.694;9.910;2022-07-03T14:53:15;1.50;;;0.88;;
22628;SDS011;11481;53.694;9.910;2022-07-03T14:55:42;1.35;;;0.70;;
22628;SDS011;11481;53.694;9.910;2022-07-03T14:58:13;1.20;;;0.85;;
22628;SDS011;11481;53.694;9.910;2022-07-03T15:00:48;5.30;;;1.02;;
22628;SDS011;11481;53.694;9.910;2022-07-03T15:05:58;1.00;;;0.80;;
22628;SDS011;11481;53.694;9.910;2022-07-03T15:11:08;1.90;;;1.10;;
22628;SDS011;11481;53.694;9.910;2022-07-03T15:14:04;1.75;;;0.82;;
22628;SDS011;11481;53.694;9.910;2022-07-03T15:16:32;5.85;;;1.13;;
22628;SDS011;11481;53.694;9.910;2022-07-03T15:19:00;1.90;;;1.10;;
22628;SDS011;11481;53.694;9.910;2022-07-03T15:21:29;1.23;;;0.90;;
22628;SDS011;11481;53.694;9.910;2022-07-03T15:24:02;5.82;;;1.60;;
22628;SDS011;11481;53.694;9.910;2022-07-03T15:26:31;11.02;;;1.23;;
22628;SDS011;11481;53.694;9.910;2022-07-03T15:28:59;1.00;;;0.80;;
22628;SDS011;11481;53.694;9.910;2022-07-03T15:31:27;6.53;;;1.85;;
22628;SDS011;11481;53.694;9.910;2022-07-03T15:33:55;2.80;;;1.40;;
22628;SDS011;11481;53.694;9.910;2022-07-03T15:36:24;3.42;;;1.00;;
22628;SDS011;11481;53.694;9.910;2022-07-03T15:38:58;2.65;;;1.30;;
22628;SDS011;11481;53.694;9.910;2022-07-03T15:42:14;1.98;;;1.00;;
22628;SDS011;11481;53.694;9.910;2022-07-03T15:44:24;5.45;;;0.90;;
22628;SDS011;11481;53.694;9.910;2022-07-03T15:47:19;1.40;;;0.77;;
22628;SDS011;11481;53.694;9.910;2022-07-03T15:49:53;1.08;;;0.90;;
22628;SDS011;11481;53.694;9.910;2022-07-03T15:52:25;2.10;;;0.90;;
22628;SDS011;11481;53.694;9.910;2022-07-03T15:57:33;4.85;;;0.90;;
22628;SDS011;11481;53.694;9.910;2022-07-03T16:00:23;0.93;;;0.75;;
22628;SDS011;11481;53.694;9.910;2022-07-03T16:02:56;2.42;;;0.98;;
22628;SDS011;11481;53.694;9.910;2022-07-03T16:05:49;1.88;;;0.90;;
22628;SDS011;11481;53.694;9.910;2022-07-03T16:08:17;2.78;;;1.08;;
22628;SDS011;11481;53.694;9.910;2022-07-03T16:10:47;1.23;;;0.77;;
22628;SDS011;11481;53.694;9.910;2022-07-03T16:13:14;2.50;;;1.02;;
22628;SDS011;11481;53.694;9.910;2022-07-03T16:15:41;3.15;;;1.17;;
22628;SDS011;11481;53.694;9.910;2022-07-03T16:18:10;1.63;;;0.80;;
22628;SDS011;11481;53.694;9.910;2022-07-03T16:20:37;2.90;;;0.95;;
22628;SDS011;11481;53.694;9.910;2022-07-03T16:23:05;2.25;;;1.10;;
22628;SDS011;11481;53.694;9.910;2022-07-03T16:25:35;1.40;;;1.02;;
22628;SDS011;11481;53.694;9.910;2022-07-03T16:28:03;2.42;;;1.23;;
22628;SDS011;11481;53.694;9.910;2022-07-03T16:30:35;2.67;;;1.17;;
22628;SDS011;11481;53.694;9.910;2022-07-03T16:33:05;1.20;;;0.90;;
22628;SDS011;11481;53.694;9.910;2022-07-03T16:35:36;1.92;;;1.02;;
22628;SDS011;11481;53.694;9.910;2022-07-03T16:38:08;2.30;;;1.10;;
22628;SDS011;11481;53.694;9.910;2022-07-03T16:40:36;7.15;;;1.25;;
22628;SDS011;11481;53.694;9.910;2022-07-03T16:43:05;2.55;;;1.10;;
22628;SDS011;11481;53.694;9.910;2022-07-03T16:45:33;2.63;;;1.13;;
22628;SDS011;11481;53.694;9.910;2022-07-03T16:48:10;4.10;;;1.20;;
22628;SDS011;11481;53.694;9.910;2022-07-03T16:50:40;2.20;;;1.10;;
22628;SDS011;11481;53.694;9.910;2022-07-03T16:53:19;1.27;;;1.00;;
22628;SDS011;11481;53.694;9.910;2022-07-03T16:55:47;1.48;;;1.02;;
22628;SDS011;11481;53.694;9.910;2022-07-03T16:58:14;6.45;;;1.45;;
22628;SDS011;11481;53.694;9.910;2022-07-03T17:01:06;2.42;;;1.27;;